Time;durP1;ratioP1;P1;durP2;ratioP2;P2;SDS_P1;SDS_P2;PMS_P1;PMS_P2;Temp;Humidity;BMP_temperature;BMP_pressure;BME280_temperature;BME280_humidity;BME280_pressure;Samples;Min_cycle;Max_cycle;Signal;HPM_P1;HPM_P2
2023/08/20 00:00:16;;;;;;;26.43;20.90;;;21.50;99.90;;;;;;4825889;29;20202;-76
2023/08/20 00:02:54;;;;;;;26.33;21.43;;;21.50;99.90;;;;;;4839848;29;20191;-77
2023/08/20 00:05:29;;;;;;;26.50;21.90;;;21.50;99.90;;;;;;4825912;29;20218;-76
2023/08/20 00:30:57;;;;;;;28.17;22.13;;;21.30;99.90;;;;;;4783842;27;20239;-81
2023/08/20 00:33:30;;;;;;;29.20;22.03;;;21.30;99.90;;;;;;4776749;29;20211;-75
2023/08/20 00:36:06;;;;;;;27.80;23.13;;;21.30;99.90;;;;;;4806883;29;20188;-80
2023/08/20 00:38:33;;;;;;;30.07;23.13;;;21.30;99.90;;;;;;4790699;29;20715;-80
2023/08/20 00:41:08;;;;;;;27.17;23.00;;;21.20;99.90;;;;;;4792014;29;20202;-81
2023/08/20 00:43:53;;;;;;;30.40;22.73;;;21.20;99.90;;;;;;4807135;29;20197;-79
2023/08/20 00:46:21;;;;;;;27.80;22.63;;;21.20;99.90;;;;;;4791174;29;20226;-79
2023/08/20 00:49:02;;;;;;;31.10;22.50;;;21.20;99.90;;;;;;4791080;29;20591;-79
2023/08/20 00:51:41;;;;;;;26.87;22.40;;;21.20;99.90;;;;;;4807271;29;20204;-78
2023/08/20 00:54:14;;;;;;;30.87;23.10;;;21.10;99.90;;;;;;4775893;29;20203;-79
2023/08/20 00:56:52;;;;;;;26.50;21.43;;;21.20;99.90;;;;;;4790467;29;20564;-80
2023/08/20 00:59:29;;;;;;;28.37;22.43;;;21.10;99.90;;;;;;4790995;29;20219;-79
2023/08/20 01:02:07;;;;;;;28.97;23.37;;;21.10;99.90;;;;;;4790614;29;20302;-80
2023/08/20 01:04:37;;;;;;;29.43;22.93;;;21.10;99.90;;;;;;4806828;29;20221;-80
2023/08/20 01:07:11;;;;;;;27.90;22.20;;;21.00;99.90;;;;;;4790189;29;20601;-78
2023/08/20 01:09:58;;;;;;;28.20;22.13;;;21.00;99.90;;;;;;4806519;29;20616;-80
2023/08/20 01:12:33;;;;;;;28.70;22.43;;;21.00;99.90;;;;;;4790408;29;20264;-78
2023/08/20 01:15:13;;;;;;;30.33;24.07;;;21.00;99.90;;;;;;4790303;29;20291;-79
2023/08/20 01:17:51;;;;;;;30.27;22.77;;;21.00;99.90;;;;;;4806349;29;20231;-77
2023/08/20 01:20:25;;;;;;;30.10;23.90;;;21.00;99.90;;;;;;4789819;29;20347;-77
2023/08/20 01:23:23;;;;;;;27.17;23.23;;;21.00;99.90;;;;;;4789927;29;20355;-78
2023/08/20 01:26:07;;;;;;;28.10;22.27;;;21.00;99.90;;;;;;4805668;29;20302;-78
2023/08/20 01:28:44;;;;;;;30.00;24.33;;;21.00;99.90;;;;;;4805977;29;20187;-77
2023/08/20 01:31:12;;;;;;;29.73;23.50;;;21.00;99.90;;;;;;4806363;29;20981;-78
2023/08/20 01:33:40;;;;;;;26.67;22.53;;;21.00;99.90;;;;;;4774965;29;20208;-79
2023/08/20 01:36:14;;;;;;;28.67;23.33;;;21.00;99.90;;;;;;4806158;29;20268;-79
2023/08/20 01:38:42;;;;;;;28.37;23.10;;;20.90;99.90;;;;;;4789799;29;20315;-78
2023/08/20 01:41:14;;;;;;;27.80;23.60;;;20.90;99.90;;;;;;4790211;29;20664;-77
2023/08/20 01:43:43;;;;;;;28.17;22.80;;;20.90;99.90;;;;;;4789586;29;20530;-77
2023/08/20 01:46:30;;;;;;;28.53;23.57;;;20.80;99.90;;;;;;4806220;29;20245;-80
2023/08/20 01:49:04;;;;;;;27.63;21.97;;;20.80;99.90;;;;;;4790544;29;20223;-80
2023/08/20 01:51:37;;;;;;;27.90;22.63;;;20.90;99.90;;;;;;4789524;29;20231;-78
2023/08/20 01:54:16;;;;;;;30.33;23.23;;;20.80;99.90;;;;;;4790500;29;20740;-77
2023/08/20 01:56:56;;;;;;;31.53;21.83;;;20.80;99.90;;;;;;4804813;29;20295;-76
2023/08/20 01:59:29;;;;;;;27.93;22.73;;;20.80;99.90;;;;;;4790006;29;20249;-78
2023/08/20 02:02:02;;;;;;;28.80;23.33;;;20.90;99.90;;;;;;4790005;29;20652;-78
2023/08/20 02:04:36;;;;;;;28.93;23.23;;;20.90;99.90;;;;;;4805769;29;20207;-77
2023/08/20 02:07:03;;;;;;;27.47;23.40;;;20.90;99.90;;;;;;4774600;29;20256;-75
2023/08/20 02:09:35;;;;;;;30.17;22.60;;;20.90;99.90;;;;;;4790718;29;20561;-79
2023/08/20 02:12:27;;;;;;;26.03;21.80;;;20.90;99.90;;;;;;4788374;29;20714;-78
2023/08/20 02:14:55;;;;;;;27.80;21.97;;;20.90;99.90;;;;;;4789218;29;20196;-74
2023/08/20 02:17:32;;;;;;;26.83;21.63;;;21.00;99.90;;;;;;4804961;29;20228;-79
2023/08/20 02:20:10;;;;;;;27.60;21.73;;;21.00;99.90;;;;;;4789967;29;20644;-80
2023/08/20 02:22:52;;;;;;;27.20;21.53;;;20.90;99.90;;;;;;4789361;29;20288;-80
2023/08/20 02:25:37;;;;;;;26.37;21.03;;;21.00;99.90;;;;;;4791076;29;20187;-80
2023/08/20 02:28:10;;;;;;;27.17;22.13;;;20.90;99.90;;;;;;4805341;29;20298;-80
2023/08/20 02:30:53;;;;;;;29.90;22.33;;;20.90;99.90;;;;;;4805199;29;20288;-79
2023/08/20 02:33:26;;;;;;;27.20;21.37;;;20.90;99.90;;;;;;4789298;29;20226;-79
2023/08/20 02:35:54;;;;;;;27.17;21.63;;;20.80;99.90;;;;;;4805221;29;20220;-79
2023/08/20 02:38:25;;;;;;;28.00;22.03;;;20.80;99.90;;;;;;4805004;29;20718;-79
2023/08/20 02:40:56;;;;;;;27.40;22.20;;;20.80;99.90;;;;;;4805160;29;20223;-80
2023/08/20 02:43:48;;;;;;;24.50;20.83;;;20.80;99.90;;;;;;4805731;29;20605;-81
2023/08/20 02:46:21;;;;;;;25.90;21.43;;;20.80;99.90;;;;;;4805152;29;20222;-80
2023/08/20 02:48:52;;;;;;;24.97;21.13;;;20.80;99.90;;;;;;4774823;29;20207;-80
2023/08/20 02:51:27;;;;;;;27.87;22.53;;;20.70;99.90;;;;;;4804926;29;20674;-80
2023/08/20 02:53:56;;;;;;;28.63;22.20;;;20.80;99.90;;;;;;4805364;29;20286;-80
2023/08/20 02:56:27;;;;;;;27.10;22.13;;;20.80;99.90;;;;;;4804945;29;20196;-78
2023/08/20 02:58:59;;;;;;;28.77;22.20;;;20.70;99.90;;;;;;4774067;29;20231;-79
2023/08/20 03:01:30;;;;;;;29.73;23.77;;;20.80;99.90;;;;;;4804692;29;20196;-78
2023/08/20 03:04:07;;;;;;;28.90;22.60;;;20.80;99.90;;;;;;4804919;29;20271;-78
2023/08/20 03:06:42;;;;;;;28.80;23.63;;;20.80;99.90;;;;;;4788689;29;20294;-77
2023/08/20 03:09:13;;;;;;;29.40;23.07;;;20.80;99.90;;;;;;4774211;29;20207;-81
2023/08/20 03:11:46;;;;;;;28.80;22.00;;;20.70;99.90;;;;;;4788713;29;20231;-77
2023/08/20 03:14:14;;;;;;;29.97;23.80;;;20.60;99.90;;;;;;4774037;29;20604;-78
2023/08/20 03:17:00;;;;;;;28.93;23.67;;;20.70;99.90;;;;;;4789164;29;20244;-77
2023/08/20 03:19:52;;;;;;;31.40;23.97;;;20.70;99.90;;;;;;4773213;29;20716;-78
2023/08/20 03:22:39;;;;;;;28.23;23.00;;;20.70;99.90;;;;;;4787719;29;20239;-78
2023/08/20 03:25:15;;;;;;;29.33;23.53;;;20.60;99.90;;;;;;4789858;29;20195;-78
2023/08/20 03:28:01;;;;;;;30.73;24.20;;;20.60;99.90;;;;;;4788961;29;20219;-80
2023/08/20 03:30:29;;;;;;;29.00;23.83;;;20.50;99.90;;;;;;4805734;29;20238;-79
2023/08/20 03:33:06;;;;;;;30.57;23.67;;;20.50;99.90;;;;;;4793120;29;20281;-80
2023/08/20 03:35:47;;;;;;;30.23;23.37;;;20.40;99.90;;;;;;4792364;29;20609;-79
2023/08/20 03:38:28;;;;;;;32.97;25.80;;;20.50;99.90;;;;;;4808323;29;20667;-79
2023/08/20 03:41:17;;;;;;;31.23;24.30;;;20.40;99.90;;;;;;4794395;29;20343;-78
2023/08/20 03:43:50;;;;;;;36.83;25.40;;;20.50;99.90;;;;;;4808140;29;20199;-80
2023/08/20 03:46:37;;;;;;;31.17;25.10;;;20.50;99.90;;;;;;4798180;29;20264;-80
2023/08/20 03:49:08;;;;;;;31.80;24.83;;;20.50;99.90;;;;;;4792147;29;20675;-81
2023/08/20 03:51:45;;;;;;;33.03;25.97;;;20.50;99.90;;;;;;4778103;29;20237;-82
2023/08/20 03:54:16;;;;;;;31.17;24.23;;;20.60;99.90;;;;;;4792731;29;20278;-80
2023/08/20 03:56:47;;;;;;;32.33;25.67;;;20.60;99.90;;;;;;4807885;29;20192;-79
2023/08/20 03:59:21;;;;;;;34.00;25.73;;;20.60;99.90;;;;;;4792129;29;20281;-79
2023/08/20 04:01:58;;;;;;;30.03;24.00;;;20.60;99.90;;;;;;4793176;29;20311;-80
2023/08/20 04:04:36;;;;;;;29.23;24.17;;;20.60;99.90;;;;;;4791342;29;20207;-80
2023/08/20 04:07:09;;;;;;;29.10;23.97;;;20.70;99.90;;;;;;4792359;29;20230;-79
2023/08/20 04:09:42;;;;;;;31.30;24.47;;;20.70;99.90;;;;;;4792038;29;20200;-79
2023/08/20 04:12:13;;;;;;;31.57;25.63;;;20.80;99.90;;;;;;4806959;29;20238;-80
2023/08/20 04:14:44;;;;;;;31.27;24.30;;;20.80;99.90;;;;;;4791570;29;20214;-79
2023/08/20 04:17:19;;;;;;;29.50;24.20;;;20.90;99.90;;;;;;4791780;29;20636;-79
2023/08/20 04:19:54;;;;;;;29.43;23.67;;;20.90;99.90;;;;;;4792206;29;20672;-79
2023/08/20 04:22:22;;;;;;;32.37;25.20;;;20.90;99.90;;;;;;4791480;29;20284;-79
2023/08/20 04:24:53;;;;;;;31.77;25.07;;;20.90;99.90;;;;;;4791715;29;20192;-79
2023/08/20 04:27:32;;;;;;;31.27;24.13;;;21.00;99.90;;;;;;4776575;29;20217;-78
2023/08/20 04:30:14;;;;;;;34.03;24.83;;;21.00;99.90;;;;;;4790733;29;20298;-79
2023/08/20 04:32:48;;;;;;;34.93;25.43;;;21.10;99.90;;;;;;4790964;29;20295;-79
2023/08/20 04:35:16;;;;;;;30.33;24.00;;;21.10;99.90;;;;;;4807499;29;20252;-78
2023/08/20 04:37:54;;;;;;;32.53;25.10;;;21.20;99.90;;;;;;4807139;29;20223;-77
2023/08/20 04:40:25;;;;;;;33.23;25.27;;;21.20;99.90;;;;;;4791441;29;20344;-78
2023/08/20 04:42:54;;;;;;;30.57;24.47;;;21.20;99.90;;;;;;4791299;29;20256;-77
2023/08/20 04:45:30;;;;;;;32.17;26.17;;;21.20;99.90;;;;;;4791424;29;20685;-79
2023/08/20 04:48:21;;;;;;;30.90;25.00;;;21.30;99.90;;;;;;4790622;29;20204;-79
2023/08/20 04:51:00;;;;;;;28.97;23.90;;;21.30;99.90;;;;;;4790599;29;20214;-80
2023/08/20 04:53:35;;;;;;;32.50;24.27;;;21.40;99.90;;;;;;4791570;29;20218;-78
2023/08/20 04:56:15;;;;;;;29.23;22.80;;;21.40;99.90;;;;;;4789550;29;20218;-78
2023/08/20 04:58:45;;;;;;;29.50;23.67;;;21.60;99.90;;;;;;4806627;29;20277;-78
2023/08/20 05:01:14;;;;;;;33.20;24.57;;;21.80;99.90;;;;;;4790797;29;20199;-78
2023/08/20 05:03:44;;;;;;;30.57;23.87;;;21.70;99.90;;;;;;4806618;29;20215;-76
2023/08/20 05:06:14;;;;;;;31.60;25.03;;;21.90;99.90;;;;;;4790441;29;20220;-80
2023/08/20 05:08:42;;;;;;;29.40;24.30;;;21.90;99.90;;;;;;4807012;29;20652;-81
2023/08/20 05:11:14;;;;;;;30.13;24.20;;;22.00;99.90;;;;;;4806326;29;20196;-79
2023/08/20 05:13:50;;;;;;;28.73;23.97;;;22.10;99.90;;;;;;4775922;29;20624;-79
2023/08/20 05:16:39;;;;;;;29.00;23.37;;;22.10;99.90;;;;;;4790700;29;20551;-78
2023/08/20 05:19:21;;;;;;;30.40;23.60;;;22.20;99.90;;;;;;4804463;29;20243;-78
2023/08/20 05:22:02;;;;;;;30.30;24.03;;;22.30;99.90;;;;;;4805847;29;20267;-77
2023/08/20 05:24:41;;;;;;;31.50;24.47;;;22.40;99.90;;;;;;4790235;29;20272;-79
2023/08/20 05:27:19;;;;;;;33.53;25.47;;;22.50;99.90;;;;;;4790975;29;20656;-78
2023/08/20 05:29:49;;;;;;;29.20;23.43;;;22.60;99.90;;;;;;4806213;29;20235;-76
2023/08/20 05:32:19;;;;;;;36.40;24.90;;;22.70;99.90;;;;;;4806690;29;20203;-80
2023/08/20 05:34:55;;;;;;;30.70;24.03;;;22.80;99.90;;;;;;4789957;29;20227;-80
2023/08/20 05:37:39;;;;;;;30.70;23.50;;;23.00;99.90;;;;;;4789587;29;20242;-80
2023/08/20 05:40:08;;;;;;;27.60;22.53;;;23.00;99.90;;;;;;4806519;29;20617;-81
2023/08/20 05:43:00;;;;;;;29.50;23.83;;;23.10;99.90;;;;;;4784535;29;20216;-80
2023/08/20 05:45:33;;;;;;;28.90;24.37;;;23.10;99.90;;;;;;4789683;29;20267;-80
2023/08/20 05:48:00;;;;;;;32.53;25.50;;;23.10;99.90;;;;;;4806516;29;20200;-76
2023/08/20 05:50:34;;;;;;;28.93;23.07;;;23.30;99.90;;;;;;4790467;29;20203;-77
2023/08/20 05:53:05;;;;;;;28.20;23.33;;;23.40;99.90;;;;;;4806097;29;20227;-78
2023/08/20 05:55:45;;;;;;;31.00;23.23;;;23.50;99.90;;;;;;4805596;29;20282;-78
2023/08/20 05:58:21;;;;;;;31.33;23.27;;;23.60;99.90;;;;;;4806051;29;20215;-80
2023/08/20 06:01:01;;;;;;;26.97;21.90;;;23.70;99.90;;;;;;4789746;29;20208;-80
2023/08/20 06:03:43;;;;;;;29.13;23.10;;;23.80;99.90;;;;;;4791573;29;20568;-78
2023/08/20 06:06:32;;;;;;;28.15;22.88;;;23.90;99.90;;;;;;4774825;29;20245;-81
2023/08/20 06:09:13;;;;;;;28.13;22.73;;;24.00;99.90;;;;;;4788880;29;20215;-80
2023/08/20 06:11:45;;;;;;;27.10;22.03;;;24.10;99.90;;;;;;4805424;29;20264;-80
2023/08/20 06:14:30;;;;;;;26.25;21.58;;;24.20;99.90;;;;;;4804901;29;20280;-79
2023/08/20 06:17:03;;;;;;;24.73;20.90;;;24.30;99.90;;;;;;4805400;29;20278;-79
2023/08/20 06:19:41;;;;;;;26.42;22.45;;;24.40;99.90;;;;;;4805739;29;20227;-77
2023/08/20 06:22:17;;;;;;;26.42;21.00;;;24.60;99.90;;;;;;4805669;29;20320;-77
2023/08/20 06:24:49;;;;;;;24.13;20.17;;;24.60;99.90;;;;;;4789333;29;20260;-80
2023/08/20 06:27:27;;;;;;;23.88;19.95;;;24.70;99.90;;;;;;4788934;29;20206;-80
2023/08/20 06:39:09;;;;;;;23.33;19.77;;;25.10;99.90;;;;;;4740168;30;20226;-81
2023/08/20 06:42:00;;;;;;;23.02;18.98;;;25.40;99.90;;;;;;4736782;30;20291;-76
2023/08/20 06:44:40;;;;;;;21.45;18.42;;;25.50;99.90;;;;;;4749230;30;20213;-78
2023/08/20 06:47:28;;;;;;;21.83;18.55;;;25.70;99.90;;;;;;4749221;30;20218;-78
2023/08/20 06:50:08;;;;;;;22.60;18.52;;;25.80;99.90;;;;;;4734484;30;20733;-81
2023/08/20 06:52:43;;;;;;;22.45;17.90;;;25.90;99.90;;;;;;4749261;30;20233;-80
2023/08/20 06:55:32;;;;;;;22.52;18.40;;;26.00;99.90;;;;;;4736397;30;20643;-80
2023/08/20 06:58:13;;;;;;;20.92;18.55;;;26.10;99.90;;;;;;4733854;30;20630;-81
2023/08/20 07:00:49;;;;;;;19.92;16.80;;;26.00;99.90;;;;;;4748711;30;20213;-79
2023/08/20 07:03:20;;;;;;;17.75;15.88;;;26.20;99.90;;;;;;4733953;30;20213;-80
2023/08/20 07:05:59;;;;;;;22.48;17.00;;;26.40;99.90;;;;;;4748513;30;20213;-79
2023/08/20 07:08:40;;;;;;;20.45;17.25;;;26.50;99.90;;;;;;4735244;30;20217;-79
2023/08/20 07:11:12;;;;;;;19.13;17.10;;;26.70;99.90;;;;;;4784448;30;20613;-79
2023/08/20 07:13:41;;;;;;;20.15;17.80;;;26.80;99.90;;;;;;4784013;30;20204;-79
2023/08/20 07:16:26;;;;;;;21.35;17.38;;;26.90;99.90;;;;;;4748894;30;20248;-79
2023/08/20 07:19:08;;;;;;;19.58;17.17;;;27.00;99.90;;;;;;4734528;30;20329;-80
2023/08/20 07:21:43;;;;;;;19.38;16.90;;;27.20;99.90;;;;;;4748979;30;20300;-79
2023/08/20 07:24:14;;;;;;;19.52;16.88;;;27.30;99.90;;;;;;4734509;30;20197;-78
2023/08/20 07:26:50;;;;;;;18.95;16.02;;;27.40;99.90;;;;;;4755897;30;20228;-79
2023/08/20 07:29:39;;;;;;;18.55;16.05;;;27.50;99.90;;;;;;4766480;30;20322;-78
2023/08/20 07:32:14;;;;;;;17.90;15.68;;;27.60;99.90;;;;;;4766421;30;20219;-78
2023/08/20 07:34:47;;;;;;;18.73;16.02;;;27.70;99.90;;;;;;4766660;30;20205;-79
2023/08/20 07:37:55;;;;;;;17.98;15.73;;;27.70;99.90;;;;;;4751228;30;20315;-80
2023/08/20 07:40:34;;;;;;;19.60;15.57;;;27.80;99.90;;;;;;4766472;30;20239;-81
2023/08/20 07:43:09;;;;;;;17.52;14.73;;;27.90;99.90;;;;;;4766342;30;20612;-80
2023/08/20 07:45:38;;;;;;;17.67;15.77;;;28.00;99.90;;;;;;4766197;30;20622;-78
2023/08/20 07:48:19;;;;;;;19.38;14.77;;;28.10;99.90;;;;;;4801889;29;20211;-79
2023/08/20 07:50:49;;;;;;;17.33;15.10;;;28.10;99.90;;;;;;4804517;29;20200;-79
2023/08/20 07:53:28;;;;;;;16.58;14.02;;;28.30;99.90;;;;;;4789954;29;20223;-80
2023/08/20 07:56:06;;;;;;;16.65;14.23;;;28.50;99.90;;;;;;4804469;29;20196;-80
2023/08/20 07:58:40;;;;;;;19.15;14.90;;;28.60;99.90;;;;;;4804358;29;20298;-79
2023/08/20 08:01:22;;;;;;;18.63;14.38;;;28.60;99.90;;;;;;4788032;29;20648;-80
2023/08/20 08:04:00;;;;;;;15.95;14.30;;;28.80;99.90;;;;;;4804201;29;20219;-79
2023/08/20 08:06:32;;;;;;;16.38;14.55;;;28.80;99.90;;;;;;4803997;29;20199;-79
2023/08/20 08:09:46;;;;;;;15.35;13.75;;;29.00;99.90;;;;;;4804457;29;20272;-80
2023/08/20 08:12:29;;;;;;;14.70;13.20;;;29.80;99.90;;;;;;4766389;30;20208;-80
2023/08/20 08:15:04;;;;;;;13.73;12.23;;;31.10;99.90;;;;;;4766292;30;20311;-79
2023/08/20 08:17:33;;;;;;;15.15;13.23;;;32.20;99.90;;;;;;4766964;30;20209;-78
2023/08/20 08:20:06;;;;;;;15.25;12.50;;;32.80;99.90;;;;;;4769159;30;20236;-78
2023/08/20 08:22:39;;;;;;;13.77;11.75;;;33.30;99.90;;;;;;4769563;30;20221;-77
2023/08/20 08:25:12;;;;;;;15.85;12.80;;;33.60;99.90;;;;;;4769490;30;20673;-79
2023/08/20 08:27:51;;;;;;;13.07;11.77;;;33.80;99.90;;;;;;4769428;30;20197;-79
2023/08/20 08:30:36;;;;;;;14.88;11.93;;;33.70;99.90;;;;;;4767612;30;20241;-81
2023/08/20 08:33:15;;;;;;;12.90;11.60;;;34.40;99.90;;;;;;4768963;30;20209;-81
2023/08/20 08:35:52;;;;;;;12.77;11.45;;;34.80;99.90;;;;;;4769275;30;20681;-79
2023/08/20 08:38:27;;;;;;;11.88;10.68;;;34.70;99.90;;;;;;4754453;30;20724;-80
2023/08/20 08:41:09;;;;;;;13.32;11.10;;;34.40;99.90;;;;;;4768956;30;20268;-80
2023/08/20 08:43:46;;;;;;;13.13;10.65;;;34.40;99.90;;;;;;4788735;29;20211;-78
2023/08/20 08:46:33;;;;;;;13.13;10.65;;;34.40;99.90;;;;;;4777568;29;20200;-79
2023/08/20 08:49:09;;;;;;;21.33;11.90;;;34.80;99.90;;;;;;4807184;29;20721;-80
2023/08/20 08:51:41;;;;;;;12.23;11.00;;;35.00;99.90;;;;;;4791304;29;20270;-81
2023/08/20 08:54:18;;;;;;;18.08;11.73;;;35.10;99.90;;;;;;4807479;29;20196;-78
2023/08/20 08:56:53;;;;;;;13.38;10.68;;;34.60;99.90;;;;;;4807293;29;20246;-77
2023/08/20 08:59:23;;;;;;;13.38;11.02;;;34.70;99.90;;;;;;4807163;29;20303;-80
2023/08/20 09:01:51;;;;;;;11.88;10.45;;;34.50;99.90;;;;;;4790998;29;20562;-80
2023/08/20 09:04:20;;;;;;;16.25;10.57;;;34.80;99.90;;;;;;4807220;29;20231;-77
2023/08/20 09:07:12;;;;;;;15.75;11.43;;;34.90;99.90;;;;;;4768848;30;20316;-80
2023/08/20 09:09:46;;;;;;;14.00;11.60;;;34.70;99.90;;;;;;4768571;30;20213;-80
2023/08/20 09:12:27;;;;;;;16.02;11.18;;;34.70;99.90;;;;;;4768472;30;20258;-79
2023/08/20 09:15:12;;;;;;;15.00;11.13;;;34.90;99.90;;;;;;4768762;30;20186;-80
2023/08/20 09:17:53;;;;;;;12.00;10.68;;;35.10;99.90;;;;;;4740807;30;20221;-79
2023/08/20 09:20:47;;;;;;;13.55;11.27;;;34.70;99.90;;;;;;4759582;30;20237;-79
2023/08/20 09:23:17;;;;;;;13.00;11.23;;;34.20;99.90;;;;;;4768581;30;20307;-81
2023/08/20 09:26:08;;;;;;;11.27;10.02;;;34.20;99.90;;;;;;4753660;30;20539;-79
2023/08/20 09:28:50;;;;;;;14.38;11.45;;;34.20;99.90;;;;;;4768259;30;20284;-80
2023/08/20 09:31:20;;;;;;;13.45;11.15;;;34.10;99.90;;;;;;4768364;30;20216;-79
2023/08/20 09:34:00;;;;;;;12.23;10.95;;;33.80;99.90;;;;;;4753134;30;20205;-80
2023/08/20 09:36:38;;;;;;;11.25;10.05;;;34.10;99.90;;;;;;4768074;30;20239;-79
2023/08/20 09:39:14;;;;;;;10.75;9.65;;;34.50;99.90;;;;;;4752842;30;20221;-80
2023/08/20 09:41:57;;;;;;;11.00;9.90;;;34.80;99.90;;;;;;4768073;30;20189;-81
2023/08/20 09:44:36;;;;;;;13.82;10.88;;;35.00;99.90;;;;;;4789264;29;20235;-78
2023/08/20 09:47:13;;;;;;;11.10;9.90;;;35.20;99.90;;;;;;4789775;29;20312;-80
2023/08/20 09:49:50;;;;;;;11.40;10.30;;;35.20;99.90;;;;;;4790232;29;20219;-80
2023/08/20 09:52:31;;;;;;;10.52;9.52;;;34.90;99.90;;;;;;4774666;29;20778;-80
2023/08/20 09:55:07;;;;;;;10.20;9.20;;;35.10;99.90;;;;;;4789872;29;20199;-79
2023/08/20 09:57:41;;;;;;;10.88;9.88;;;35.30;99.90;;;;;;4775193;29;20272;-79
2023/08/20 10:00:19;;;;;;;11.20;9.98;;;35.50;99.90;;;;;;4804507;29;20231;-80
2023/08/20 10:03:13;;;;;;;10.35;9.30;;;35.30;99.90;;;;;;4804682;29;20191;-80
2023/08/20 10:06:43;;;;;;;10.90;9.43;;;35.70;99.90;;;;;;4752806;30;20216;-82
2023/08/20 10:10:04;;;;;;;10.23;8.85;;;36.00;99.90;;;;;;4767444;30;20362;-83
2023/08/20 10:16:10;;;;;;;10.00;8.85;;;36.50;99.60;;;;;;4731034;30;20214;-80
2023/08/20 10:19:19;;;;;;;9.75;8.63;;;36.80;97.40;;;;;;4718505;30;20241;-78
2023/08/20 10:22:08;;;;;;;9.80;8.50;;;37.20;97.20;;;;;;4731713;30;20312;-79
2023/08/20 10:24:50;;;;;;;10.45;9.30;;;37.00;96.30;;;;;;4702952;30;20220;-79
2023/08/20 10:27:35;;;;;;;10.18;8.75;;;37.00;96.50;;;;;;4717917;30;20225;-80
2023/08/20 10:30:16;;;;;;;11.75;8.82;;;37.10;96.20;;;;;;4737924;30;20377;-80
2023/08/20 10:33:04;;;;;;;11.30;8.90;;;37.70;95.90;;;;;;4735078;30;20201;-79
2023/08/20 10:35:38;;;;;;;9.88;8.88;;;37.90;96.40;;;;;;4734260;30;20295;-82
2023/08/20 10:38:55;;;;;;;;;;;;;;;;;;;;;
2023/08/20 10:55:26;;;;;;;;;;;;;;;;;;;;;
2023/08/20 10:59:05;;;;;;;9.82;8.73;;;38.60;90.40;;;;;;4520518;31;20818;-81
2023/08/20 11:17:16;;;;;;;9.80;8.80;;;39.60;89.20;;;;;;6175324;23;20175;-85
2023/08/20 11:19:56;;;;;;;10.05;8.93;;;39.90;85.70;;;;;;6162677;23;20201;-85
2023/08/20 11:59:38;;;;;;;9.82;8.57;;;40.90;78.40;;;;;;6258445;22;20640;-78
2023/08/20 12:02:29;;;;;;;9.93;8.80;;;41.20;79.00;;;;;;6259087;22;20165;-86
2023/08/20 12:05:09;;;;;;;9.88;8.88;;;41.60;75.60;;;;;;6252547;23;20190;-78
2023/08/20 12:07:42;;;;;;;11.18;9.00;;;41.00;77.40;;;;;;6252699;22;20265;-78
2023/08/20 12:10:32;;;;;;;9.77;8.73;;;41.00;76.20;;;;;;6252848;23;20675;-78
2023/08/20 12:13:27;;;;;;;10.07;9.07;;;40.70;76.00;;;;;;6245346;23;20184;-79
2023/08/20 12:16:09;;;;;;;10.30;9.30;;;41.00;76.00;;;;;;6181956;23;20180;-77
2023/08/20 12:18:37;;;;;;;10.90;9.45;;;41.10;75.20;;;;;;6156856;23;20171;-77
2023/08/20 12:21:20;;;;;;;9.45;8.60;;;41.10;74.20;;;;;;6182096;23;20222;-82
2023/08/20 12:23:50;;;;;;;10.07;9.13;;;40.90;74.40;;;;;;6157993;23;20168;-83
2023/08/20 12:26:40;;;;;;;10.07;9.13;;;40.60;72.40;;;;;;6181480;23;20246;-85
2023/08/20 12:29:15;;;;;;;9.95;8.95;;;40.00;74.20;;;;;;6132536;23;20646;-82
2023/08/20 12:31:45;;;;;;;9.93;9.02;;;40.20;73.50;;;;;;6182078;23;20627;-75
2023/08/20 12:34:21;;;;;;;10.32;9.32;;;39.90;74.10;;;;;;6182328;23;20215;-77
2023/08/20 12:36:56;;;;;;;10.82;9.73;;;39.80;74.50;;;;;;6181972;23;20214;-81
2023/08/20 12:39:28;;;;;;;11.02;9.93;;;38.80;75.90;;;;;;6182282;23;20250;-83
2023/08/20 12:42:10;;;;;;;11.00;9.65;;;38.20;77.90;;;;;;6156656;23;20175;-82
2023/08/20 12:44:53;;;;;;;11.38;10.27;;;38.00;80.40;;;;;;6179901;23;20186;-82
2023/08/20 12:47:33;;;;;;;12.18;10.13;;;37.90;77.70;;;;;;6196497;23;20220;-84
2023/08/20 12:50:05;;;;;;;11.45;10.07;;;38.00;78.90;;;;;;6245031;23;20228;-80
2023/08/20 13:05:56;;;;;;;11.32;10.23;;;38.20;80.00;;;;;;6206471;22;20398;-90
2023/08/20 14:47:54;;;;;;;;;;;;;;;;;;;;;
2023/08/20 15:03:50;;;;;;;;;;;;;;;;;;;;;
2023/08/20 15:44:23;;;;;;;10.23;9.23;;;35.40;82.50;;;;;;6154029;23;20212;-90
2023/08/20 15:51:53;;;;;;;11.95;10.52;;;34.40;84.60;;;;;;5894286;24;20193;-79
2023/08/20 15:55:01;;;;;;;11.10;9.85;;;33.80;86.10;;;;;;5878378;24;20186;-81
2023/08/20 16:19:25;;;;;;;13.10;10.50;;;32.30;90.20;;;;;;6151264;22;3041723;-82
2023/08/20 16:21:59;;;;;;;13.25;10.45;;;32.50;89.90;;;;;;6246603;23;20229;-81
2023/08/20 16:24:33;;;;;;;11.40;9.70;;;32.90;88.60;;;;;;6225390;23;20201;-81
2023/08/20 17:03:28;;;;;;;;;;;;;;;;;;;;;
2023/08/20 17:06:13;;;;;;;11.02;9.35;;;32.20;88.80;;;;;;5841778;24;20276;-82
2023/08/20 17:09:29;;;;;;;11.93;10.13;;;31.80;89.60;;;;;;5934325;24;20196;-79
2023/08/20 17:16:37;;;;;;;13.05;10.32;;;31.10;90.60;;;;;;5945260;24;20264;-79
2023/08/20 17:19:20;;;;;;;11.55;9.85;;;30.90;91.10;;;;;;5950757;24;20177;-79
2023/08/20 17:22:06;;;;;;;10.43;9.25;;;30.90;91.30;;;;;;5906085;24;20213;-80
2023/08/20 17:24:36;;;;;;;10.80;9.60;;;30.70;91.50;;;;;;5950864;24;20204;-81
2023/08/20 17:27:15;;;;;;;11.82;9.48;;;30.50;91.70;;;;;;5929960;24;20599;-80
2023/08/20 17:30:11;;;;;;;12.10;9.68;;;30.40;91.90;;;;;;5931491;24;20173;-81
2023/08/20 17:33:31;;;;;;;11.85;9.82;;;30.30;92.20;;;;;;6012005;23;20178;-80
2023/08/20 17:36:50;;;;;;;11.93;10.18;;;30.10;92.40;;;;;;6060302;23;20198;-89
2023/08/20 17:39:56;;;;;;;11.57;10.13;;;30.00;92.80;;;;;;6032390;23;20177;-79
2023/08/20 17:42:34;;;;;;;13.07;10.15;;;29.80;93.20;;;;;;6046715;23;20264;-79
2023/08/20 17:45:36;;;;;;;11.13;9.55;;;29.80;93.60;;;;;;6176576;23;20186;-80
2023/08/20 17:49:16;;;;;;;12.75;9.98;;;29.60;93.80;;;;;;6121782;23;20612;-80
2023/08/20 17:52:50;;;;;;;11.38;9.90;;;29.60;94.10;;;;;;6201786;23;20685;-81
2023/08/20 17:59:10;;;;;;;11.65;10.27;;;29.40;94.60;;;;;;6303515;22;20575;-79
2023/08/20 18:01:50;;;;;;;13.27;10.25;;;29.20;95.10;;;;;;6278343;22;20172;-80
2023/08/20 18:05:13;;;;;;;12.93;9.77;;;29.30;95.30;;;;;;6278048;22;20246;-79
2023/08/20 18:07:59;;;;;;;11.43;10.15;;;29.20;95.50;;;;;;6257509;22;20277;-77
2023/08/20 18:10:52;;;;;;;;;;;;;;;;;;;;;
2023/08/20 18:13:34;;;;;;;15.90;11.00;;;29.00;95.80;;;;;;6247529;22;20170;-80
2023/08/20 18:16:09;;;;;;;12.00;10.70;;;28.90;96.10;;;;;;6249117;22;20593;-81
2023/08/20 19:15:55;;;;;;;14.48;11.88;;;28.10;99.90;;;;;;6304129;22;20196;-85
2023/08/20 19:18:31;;;;;;;14.57;11.73;;;28.10;99.90;;;;;;6305737;22;20251;-80
2023/08/20 19:20:58;;;;;;;15.50;12.05;;;28.00;99.90;;;;;;6305730;22;20165;-80
2023/08/20 19:23:33;;;;;;;16.90;12.68;;;27.90;99.90;;;;;;6277519;22;20208;-80
2023/08/20 19:26:05;;;;;;;14.48;11.98;;;27.90;99.90;;;;;;6275196;22;20193;-81
2023/08/20 19:28:35;;;;;;;17.90;12.07;;;27.90;99.90;;;;;;6247950;22;20161;-80
2023/08/20 19:31:03;;;;;;;14.82;11.98;;;27.90;99.90;;;;;;6276017;22;20196;-78
2023/08/20 19:33:32;;;;;;;15.65;11.82;;;27.80;99.90;;;;;;6275333;22;20166;-78
2023/08/20 19:36:00;;;;;;;15.70;12.23;;;27.80;99.90;;;;;;6275190;22;20215;-81
2023/08/20 19:38:28;;;;;;;14.65;12.05;;;27.70;99.90;;;;;;6274681;22;20264;-79
2023/08/20 19:40:55;;;;;;;17.25;11.65;;;27.60;99.90;;;;;;6274422;22;20485;-79
2023/08/20 19:43:26;;;;;;;13.52;11.77;;;27.60;99.90;;;;;;6274991;22;20245;-80
2023/08/20 19:45:54;;;;;;;18.52;12.82;;;27.50;99.90;;;;;;6274675;22;20196;-80
2023/08/20 19:48:21;;;;;;;16.65;12.10;;;27.50;99.90;;;;;;6275133;22;20546;-79
2023/08/20 19:50:48;;;;;;;16.45;12.82;;;27.40;99.90;;;;;;6248148;22;20176;-80
2023/08/20 19:53:16;;;;;;;14.82;12.10;;;27.30;99.90;;;;;;6274289;22;20561;-79
2023/08/20 19:55:43;;;;;;;15.90;13.00;;;27.30;99.90;;;;;;6247790;22;20678;-78
2023/08/20 19:58:10;;;;;;;17.40;12.35;;;27.30;99.90;;;;;;6274576;22;20443;-78
2023/08/20 20:00:37;;;;;;;16.92;12.65;;;27.30;99.90;;;;;;6274799;22;20165;-80
2023/08/20 20:03:11;;;;;;;17.13;13.10;;;27.20;99.90;;;;;;6274702;22;20162;-76
2023/08/20 20:05:39;;;;;;;17.60;13.18;;;27.10;99.90;;;;;;6274385;22;20189;-79
2023/08/20 20:08:07;;;;;;;19.10;13.32;;;27.10;99.90;;;;;;6274566;22;20651;-77